createdAt,value
2018-02-25T00:00:37.090Z,-1.67
2018-02-25T00:03:05.702Z,-1.59
2018-02-25T00:05:34.086Z,-1.61
2018-02-25T00:08:02.520Z,-1.64
2018-02-25T00:10:30.935Z,-1.70
2018-02-25T00:12:59.335Z,-1.70
2018-02-25T00:15:27.735Z,-1.72
2018-02-25T00:17:56.887Z,-1.77
2018-02-25T00:20:25.267Z,-1.83
2018-02-25T00:22:53.669Z,-1.84
2018-02-25T00:25:22.076Z,-1.86
2018-02-25T00:27:51.237Z,-1.80
2018-02-25T00:30:19.634Z,-1.87
2018-02-25T00:32:48.011Z,-1.83
2018-02-25T00:35:16.568Z,-1.84
2018-02-25T00:37:44.975Z,-1.87
2018-02-25T00:40:14.119Z,-1.89
2018-02-25T00:42:42.562Z,-1.92
2018-02-25T00:45:11.728Z,-1.90
2018-02-25T00:47:40.128Z,-1.96
2018-02-25T00:50:08.659Z,-1.98
2018-02-25T00:52:37.066Z,-2.00
2018-02-25T00:55:05.467Z,-2.03
2018-02-25T00:57:33.896Z,-2.13
2018-02-25T01:00:02.282Z,-2.13
2018-02-25T01:02:30.659Z,-2.11
2018-02-25T01:04:59.107Z,-2.12
2018-02-25T01:07:28.344Z,-2.20
2018-02-25T01:09:56.739Z,-2.22
2018-02-25T01:12:25.254Z,-2.26
2018-02-25T01:14:54.214Z,-2.29
2018-02-25T01:17:22.625Z,-2.41
2018-02-25T01:19:51.073Z,-2.49
2018-02-25T01:22:19.443Z,-2.44
2018-02-25T01:24:47.876Z,-2.42
2018-02-25T01:27:17.025Z,-2.50
2018-02-25T01:29:45.524Z,-2.54
2018-02-25T01:32:13.918Z,-2.56
2018-02-25T01:34:42.299Z,-2.53
2018-02-25T01:37:10.700Z,-2.56
2018-02-25T01:39:39.867Z,-2.62
2018-02-25T01:42:08.824Z,-2.69
2018-02-25T01:44:37.204Z,-2.61
2018-02-25T01:47:05.715Z,-2.64
2018-02-25T01:49:34.104Z,-2.68
2018-02-25T01:52:02.552Z,-2.69
2018-02-25T01:54:30.955Z,-2.68
2018-02-25T01:56:59.365Z,-2.78
2018-02-25T01:59:27.748Z,-2.85
2018-02-25T02:01:56.907Z,-2.88
2018-02-25T02:04:25.299Z,-2.85
2018-02-25T02:06:53.746Z,-2.91
2018-02-25T02:09:22.112Z,-2.90
2018-02-25T02:11:50.606Z,-2.90
2018-02-25T02:14:19.013Z,-2.93
2018-02-25T02:16:47.435Z,-2.96
2018-02-25T02:19:16.595Z,-2.95
2018-02-25T02:21:44.975Z,-2.88
2018-02-25T02:24:13.375Z,-2.95
2018-02-25T02:26:41.763Z,-2.96
2018-02-25T02:29:10.945Z,-2.94
2018-02-25T02:31:39.349Z,-3.02
2018-02-25T02:34:08.526Z,-3.07
2018-02-25T02:36:36.936Z,-3.08
2018-02-25T02:39:06.098Z,-3.07
2018-02-25T02:41:34.525Z,-3.06
2018-02-25T02:44:02.900Z,-3.14
2018-02-25T02:46:31.481Z,-3.17
2018-02-25T02:49:00.672Z,-3.20
2018-02-25T02:51:29.824Z,-3.21
2018-02-25T02:53:58.196Z,-3.21
2018-02-25T02:56:26.607Z,-3.20
2018-02-25T02:58:55.763Z,-3.29
2018-02-25T03:01:24.539Z,-3.34
2018-02-25T03:03:53.000Z,-3.37
2018-02-25T03:06:22.263Z,-3.32
2018-02-25T03:08:50.673Z,-3.30
2018-02-25T03:11:19.830Z,-3.32
2018-02-25T03:13:48.389Z,-3.35
2018-02-25T03:16:17.412Z,-3.51
2018-02-25T03:18:45.921Z,-3.52
2018-02-25T03:21:14.326Z,-3.54
2018-02-25T03:23:43.655Z,-3.55
2018-02-25T03:26:12.253Z,-3.66
2018-02-25T03:28:40.717Z,-3.79
2018-02-25T03:31:09.205Z,-3.80
2018-02-25T03:33:37.566Z,-3.84
2018-02-25T03:36:05.987Z,-3.91
2018-02-25T03:38:34.382Z,-3.90
2018-02-25T03:41:03.562Z,-3.76
2018-02-25T03:43:31.948Z,-3.76
2018-02-25T03:46:00.404Z,-3.77
2018-02-25T03:48:28.853Z,-3.80
2018-02-25T03:50:58.013Z,-3.77
2018-02-25T03:53:26.406Z,-3.81
2018-02-25T03:55:54.794Z,-3.91
2018-02-25T03:58:23.199Z,-3.87
2018-02-25T04:00:51.570Z,-3.84
2018-02-25T04:03:21.347Z,-3.83
2018-02-25T04:05:49.756Z,-3.90
2018-02-25T04:08:18.903Z,-4.01
2018-02-25T04:10:47.318Z,-3.97
2018-02-25T04:13:15.711Z,-4.07
2018-02-25T04:15:44.909Z,-4.03
2018-02-25T04:18:14.190Z,-4.07
2018-02-25T04:20:42.635Z,-4.00
2018-02-25T04:23:11.019Z,-4.05
2018-02-25T04:25:39.439Z,-4.03
2018-02-25T04:28:07.847Z,-4.14
2018-02-25T04:30:37.047Z,-4.11
2018-02-25T04:33:06.188Z,-4.16
2018-02-25T04:35:34.573Z,-4.17
2018-02-25T04:38:02.991Z,-4.24
2018-02-25T04:40:31.371Z,-4.25
2018-02-25T04:42:59.762Z,-4.35
2018-02-25T04:45:28.230Z,-4.32
2018-02-25T04:47:57.379Z,-4.40
2018-02-25T04:50:25.789Z,-4.31
2018-02-25T04:52:55.048Z,-4.39
2018-02-25T04:55:23.406Z,-4.49
2018-02-25T04:57:52.611Z,-4.48
2018-02-25T05:00:21.004Z,-4.51
2018-02-25T05:02:49.419Z,-4.55
2018-02-25T05:05:17.803Z,-4.65
2018-02-25T05:07:46.347Z,-4.59
2018-02-25T05:10:14.743Z,-4.61
2018-02-25T05:12:43.124Z,-4.63
2018-02-25T05:15:11.544Z,-4.60
2018-02-25T05:17:40.724Z,-4.81
2018-02-25T05:20:09.097Z,-4.82
2018-02-25T05:22:37.527Z,-4.84
2018-02-25T05:25:06.661Z,-4.88
2018-02-25T05:27:35.219Z,-4.90
2018-02-25T05:30:04.340Z,-5.08
2018-02-25T05:32:32.827Z,-5.16
2018-02-25T05:35:01.198Z,-5.24
2018-02-25T05:37:29.624Z,-5.28
2018-02-25T05:39:58.783Z,-5.10
2018-02-25T05:42:27.172Z,-5.01
2018-02-25T05:44:55.566Z,-5.03
2018-02-25T05:47:23.951Z,-5.11
2018-02-25T05:49:52.403Z,-5.24
2018-02-25T05:52:20.805Z,-5.29
2018-02-25T05:54:49.878Z,-5.22
2018-02-25T05:57:19.204Z,-5.29
2018-02-25T05:59:47.750Z,-5.19
2018-02-25T06:02:16.908Z,-5.22
2018-02-25T06:04:46.050Z,-5.20
2018-02-25T06:07:14.430Z,-5.18
2018-02-25T06:09:42.817Z,-5.16
2018-02-25T06:12:11.186Z,-5.18
2018-02-25T06:14:39.598Z,-5.12
2018-02-25T06:17:08.162Z,-4.95
2018-02-25T06:19:36.557Z,-4.99
2018-02-25T06:22:04.948Z,-5.02
2018-02-25T06:24:33.327Z,-5.04
2018-02-25T06:27:02.510Z,-4.87
2018-02-25T06:29:30.904Z,-4.88
2018-02-25T06:31:59.275Z,-4.93
2018-02-25T06:34:27.867Z,-4.83
2018-02-25T06:36:56.439Z,-4.75
2018-02-25T06:39:25.007Z,-4.67
2018-02-25T06:41:53.431Z,-4.66
2018-02-25T06:44:22.581Z,-4.66
2018-02-25T06:46:51.028Z,-4.58
2018-02-25T06:49:20.188Z,-4.58
2018-02-25T06:51:48.590Z,-4.54
2018-02-25T06:54:17.727Z,-4.47
2018-02-25T06:56:46.145Z,-4.50
2018-02-25T06:59:14.532Z,-4.45
2018-02-25T07:01:42.913Z,-4.41
2018-02-25T07:04:11.458Z,-4.38
2018-02-25T07:06:39.880Z,-4.31
2018-02-25T07:09:08.331Z,-4.27
2018-02-25T07:11:36.733Z,-4.24
2018-02-25T07:14:05.143Z,-4.32
2018-02-25T07:16:34.330Z,-4.24
2018-02-25T07:19:02.921Z,-4.19
2018-02-25T07:21:31.306Z,-4.19
2018-02-25T07:23:59.722Z,-4.14
2018-02-25T07:26:28.879Z,-4.17
2018-02-25T07:28:57.298Z,-4.18
2018-02-25T07:31:26.439Z,-4.15
2018-02-25T07:33:54.825Z,-4.08
2018-02-25T07:36:23.223Z,-4.03
2018-02-25T07:38:51.603Z,-4.00
2018-02-25T07:41:20.099Z,-3.96
2018-02-25T07:43:49.472Z,-3.91
2018-02-25T07:46:17.858Z,-3.85
2018-02-25T07:48:46.247Z,-3.83
2018-02-25T07:51:15.410Z,-3.85
2018-02-25T07:53:43.782Z,-3.72
2018-02-25T07:56:12.178Z,-3.63
2018-02-25T07:58:40.639Z,-3.61
2018-02-25T08:01:09.115Z,-3.56
2018-02-25T08:03:37.551Z,-3.52
2018-02-25T08:06:05.931Z,-3.56
2018-02-25T08:08:34.353Z,-3.50
2018-02-25T08:11:02.792Z,-3.45
2018-02-25T08:13:31.259Z,-3.44
2018-02-25T08:15:59.671Z,-3.40
2018-02-25T08:18:28.070Z,-3.33
2018-02-25T08:20:56.467Z,-3.34
2018-02-25T08:23:25.630Z,-3.37
2018-02-25T08:25:54.691Z,-3.33
2018-02-25T08:28:23.834Z,-3.18
2018-02-25T08:30:52.234Z,-3.13
2018-02-25T08:33:20.899Z,-3.09
2018-02-25T08:35:50.203Z,-3.10
2018-02-25T08:38:19.360Z,-3.12
2018-02-25T08:40:48.593Z,-3.11
2018-02-25T08:43:17.124Z,-3.05
2018-02-25T08:45:46.279Z,-2.91
2018-02-25T08:48:14.816Z,-2.86
2018-02-25T08:50:43.992Z,-2.71
2018-02-25T08:53:12.510Z,-2.72
2018-02-25T08:55:41.676Z,-2.50
2018-02-25T08:58:10.080Z,-2.48
2018-02-25T09:00:39.736Z,-2.44
2018-02-25T09:03:08.149Z,-2.31
2018-02-25T09:05:36.558Z,-2.04
2018-02-25T09:08:06.241Z,-1.97
2018-02-25T09:10:35.490Z,-1.96
2018-02-25T09:13:03.938Z,-1.84
2018-02-25T09:15:33.107Z,-1.52
2018-02-25T09:18:01.549Z,-1.48
2018-02-25T09:20:29.938Z,-0.82
2018-02-25T09:22:58.327Z,0.04
2018-02-25T09:25:26.721Z,0.42
2018-02-25T09:27:55.130Z,1.37
2018-02-25T09:30:24.352Z,1.45
2018-02-25T09:32:53.025Z,1.98
2018-02-25T09:35:21.427Z,2.82
2018-02-25T09:37:49.802Z,3.79
2018-02-25T09:40:18.372Z,3.71
2018-02-25T09:42:46.777Z,3.48
2018-02-25T09:45:15.161Z,3.33
2018-02-25T09:47:43.579Z,3.84
2018-02-25T09:50:12.731Z,4.39
2018-02-25T09:52:41.127Z,4.60
2018-02-25T09:55:09.653Z,4.34
2018-02-25T09:57:38.028Z,4.23
2018-02-25T10:00:06.413Z,4.00
2018-02-25T10:02:34.843Z,4.62
2018-02-25T10:05:03.235Z,5.41
2018-02-25T10:07:31.595Z,4.91
2018-02-25T10:10:00.003Z,4.46
2018-02-25T10:12:29.160Z,4.48
2018-02-25T10:14:57.664Z,5.03
2018-02-25T10:17:26.051Z,4.54
2018-02-25T10:19:54.684Z,5.13
2018-02-25T10:22:23.082Z,4.74
2018-02-25T10:24:52.711Z,4.83
2018-02-25T10:27:21.289Z,5.32
2018-02-25T10:29:50.486Z,6.14
2018-02-25T10:32:18.955Z,5.96
2018-02-25T10:34:47.396Z,5.65
2018-02-25T10:37:17.856Z,5.21
2018-02-25T10:39:46.287Z,6.07
2018-02-25T10:42:14.724Z,5.65
2018-02-25T10:44:43.122Z,6.24
2018-02-25T10:47:11.498Z,6.23
2018-02-25T10:49:40.015Z,6.54
2018-02-25T10:52:12.307Z,6.07
2018-02-25T10:54:42.332Z,6.05
2018-02-25T10:57:21.896Z,6.65
2018-02-25T11:00:00.678Z,6.61
2018-02-25T11:02:33.480Z,6.52
2018-02-25T11:05:02.465Z,6.12
2018-02-25T11:07:33.645Z,6.09
2018-02-25T11:10:02.231Z,5.39
2018-02-25T11:12:30.698Z,6.39
2018-02-25T11:14:59.075Z,6.06
2018-02-25T11:17:27.908Z,6.66
2018-02-25T11:19:57.652Z,6.15
2018-02-25T11:22:26.053Z,6.67
2018-02-25T11:24:54.471Z,6.03
2018-02-25T11:27:22.853Z,5.88
2018-02-25T11:29:51.289Z,5.30
2018-02-25T11:32:19.654Z,5.81
2018-02-25T11:34:48.042Z,5.48
2018-02-25T11:37:17.202Z,5.86
2018-02-25T11:39:45.591Z,5.33
2018-02-25T11:42:14.068Z,5.78
2018-02-25T11:44:42.643Z,5.11
2018-02-25T11:47:11.006Z,5.23
2018-02-25T11:49:39.398Z,5.24
2018-02-25T11:52:07.777Z,5.12
2018-02-25T11:54:36.227Z,4.82
2018-02-25T11:57:05.415Z,5.25
2018-02-25T11:59:33.812Z,5.08
2018-02-25T12:02:03.134Z,5.86
2018-02-25T12:04:31.601Z,5.63
2018-02-25T12:07:00.871Z,5.75
2018-02-25T12:09:29.247Z,5.51
2018-02-25T12:11:57.667Z,5.53
2018-02-25T12:14:26.098Z,5.16
2018-02-25T12:16:54.500Z,5.30
2018-02-25T12:19:22.897Z,5.34
2018-02-25T12:21:51.338Z,5.40
2018-02-25T12:24:20.700Z,5.10
2018-02-25T12:26:49.125Z,5.39
2018-02-25T12:29:18.352Z,5.28
2018-02-25T12:31:46.852Z,5.24
2018-02-25T12:34:15.259Z,4.90
2018-02-25T12:36:43.726Z,4.91
2018-02-25T12:39:12.733Z,4.90
2018-02-25T12:41:41.118Z,5.00
2018-02-25T12:44:09.532Z,5.04
2018-02-25T12:46:37.942Z,4.65
2018-02-25T12:49:06.361Z,5.01
2018-02-25T12:51:34.797Z,4.65
2018-02-25T12:54:03.267Z,4.66
2018-02-25T12:56:31.648Z,4.95
2018-02-25T12:59:00.043Z,4.99
2018-02-25T13:01:28.491Z,4.91
2018-02-25T13:03:57.632Z,5.05
2018-02-25T13:06:26.042Z,4.94
2018-02-25T13:08:54.407Z,4.98
2018-02-25T13:11:22.955Z,5.10
2018-02-25T13:13:51.346Z,4.87
2018-02-25T13:16:19.729Z,4.95
2018-02-25T13:18:48.156Z,4.58
2018-02-25T13:21:16.620Z,4.35
2018-02-25T13:23:45.058Z,4.06
2018-02-25T13:26:14.258Z,4.43
2018-02-25T13:28:43.430Z,4.30
2018-02-25T13:31:11.832Z,4.32
2018-02-25T13:33:40.994Z,4.75
2018-02-25T13:36:09.406Z,4.69
2018-02-25T13:38:38.581Z,4.45
2018-02-25T13:41:06.985Z,4.68
2018-02-25T13:43:36.138Z,4.89
2018-02-25T13:46:04.544Z,4.80
2018-02-25T13:48:32.944Z,4.59
2018-02-25T13:51:02.116Z,4.50
2018-02-25T13:53:30.517Z,4.72
2018-02-25T13:55:59.197Z,4.81
2018-02-25T13:58:27.587Z,4.41
2018-02-25T14:00:55.986Z,4.49
2018-02-25T14:03:24.549Z,4.63
2018-02-25T14:05:53.026Z,4.48
2018-02-25T14:08:21.467Z,4.63
2018-02-25T14:10:50.603Z,5.01
2018-02-25T14:13:19.010Z,5.35
2018-02-25T14:15:47.421Z,5.25
2018-02-25T14:18:15.822Z,5.51
2018-02-25T14:20:44.231Z,4.88
2018-02-25T14:23:12.643Z,5.48
2018-02-25T14:25:41.104Z,4.92
2018-02-25T14:28:09.481Z,5.37
2018-02-25T14:30:37.863Z,5.67
2018-02-25T14:33:06.340Z,5.55
2018-02-25T14:35:34.951Z,5.26
2018-02-25T14:38:04.119Z,5.53
2018-02-25T14:40:32.545Z,5.96
2018-02-25T14:43:01.739Z,5.30
2018-02-25T14:45:31.828Z,5.50
2018-02-25T14:48:00.452Z,5.53
2018-02-25T14:50:29.624Z,4.76
2018-02-25T14:52:58.023Z,4.93
2018-02-25T14:55:26.419Z,4.92
2018-02-25T14:57:55.560Z,4.23
2018-02-25T15:00:24.154Z,4.03
2018-02-25T15:02:52.629Z,4.34
2018-02-25T15:05:22.661Z,4.04
2018-02-25T15:07:51.081Z,3.82
2018-02-25T15:10:20.299Z,4.01
2018-02-25T15:12:49.477Z,3.75
2018-02-25T15:15:17.886Z,3.75
2018-02-25T15:17:47.229Z,3.22
2018-02-25T15:20:15.731Z,3.25
2018-02-25T15:22:44.533Z,3.04
2018-02-25T15:25:12.967Z,2.98
2018-02-25T15:27:41.461Z,2.84
2018-02-25T15:30:09.890Z,2.76
2018-02-25T15:32:39.191Z,2.64
2018-02-25T15:35:08.359Z,2.63
2018-02-25T15:37:36.941Z,2.49
2018-02-25T15:40:05.315Z,2.67
2018-02-25T15:42:33.787Z,2.61
2018-02-25T15:45:02.376Z,2.39
2018-02-25T15:47:30.788Z,2.26
2018-02-25T15:49:59.173Z,2.29
2018-02-25T15:52:29.682Z,2.05
2018-02-25T15:54:58.456Z,1.86
2018-02-25T15:57:26.859Z,1.69
2018-02-25T15:59:55.284Z,1.48
2018-02-25T16:02:23.743Z,1.40
2018-02-25T16:04:52.878Z,1.32
2018-02-25T16:07:21.299Z,1.23
2018-02-25T16:09:49.817Z,1.19
2018-02-25T16:12:18.208Z,1.08
2018-02-25T16:14:46.900Z,0.95
2018-02-25T16:17:15.320Z,0.79
2018-02-25T16:19:43.840Z,0.79
2018-02-25T16:22:13.040Z,0.76
2018-02-25T16:24:42.210Z,0.67
2018-02-25T16:27:10.643Z,0.58
2018-02-25T16:29:39.053Z,0.42
2018-02-25T16:32:07.463Z,0.39
2018-02-25T16:34:35.848Z,0.28
2018-02-25T16:37:05.314Z,0.30
2018-02-25T16:39:33.703Z,0.09
2018-02-25T16:42:02.135Z,0.12
2018-02-25T16:44:40.488Z,0.05
2018-02-25T16:47:09.061Z,-0.08
2018-02-25T16:49:37.455Z,-0.22
2018-02-25T16:52:05.867Z,-0.29
2018-02-25T16:54:35.541Z,-0.38
2018-02-25T16:57:04.070Z,-0.51
2018-02-25T16:59:33.374Z,-0.63
2018-02-25T17:02:02.632Z,-0.65
2018-02-25T17:04:31.059Z,-0.69
2018-02-25T17:06:59.749Z,-0.78
2018-02-25T17:09:28.333Z,-0.78
2018-02-25T17:11:57.486Z,-0.85
2018-02-25T17:14:26.695Z,-0.88
2018-02-25T17:16:55.101Z,-0.89
2018-02-25T17:19:23.562Z,-0.98
2018-02-25T17:21:51.983Z,-0.95
2018-02-25T17:24:23.281Z,-1.12
2018-02-25T17:26:51.988Z,-1.06
2018-02-25T17:29:25.428Z,-1.13
2018-02-25T17:31:54.072Z,-1.21
2018-02-25T17:34:22.722Z,-1.20
2018-02-25T17:36:53.190Z,-1.33
2018-02-25T17:39:21.621Z,-1.29
2018-02-25T17:41:50.209Z,-1.30
2018-02-25T17:44:19.410Z,-1.36
2018-02-25T17:46:47.824Z,-1.32
2018-02-25T17:49:17.215Z,-1.31
2018-02-25T17:51:46.591Z,-1.31
2018-02-25T17:54:15.070Z,-1.35
2018-02-25T17:56:44.555Z,-1.24
2018-02-25T17:59:13.001Z,-1.12
2018-02-25T18:01:41.461Z,-1.07
2018-02-25T18:04:09.936Z,-0.96
2018-02-25T18:06:39.224Z,-0.88
2018-02-25T18:09:07.676Z,-0.80
2018-02-25T18:11:36.109Z,-0.74
2018-02-25T18:14:04.642Z,-0.70
2018-02-25T18:16:36.347Z,-0.67
2018-02-25T18:19:04.793Z,-0.65
2018-02-25T18:21:33.293Z,-0.62
2018-02-25T18:24:01.725Z,-0.67
2018-02-25T18:26:30.182Z,-0.65
2018-02-25T18:28:58.660Z,-0.56
2018-02-25T18:31:28.147Z,-0.65
2018-02-25T18:33:56.647Z,-0.57
2018-02-25T18:36:25.179Z,-0.65
2018-02-25T18:38:54.446Z,-0.67
2018-02-25T18:41:22.953Z,-0.67
2018-02-25T18:43:51.415Z,-0.70
2018-02-25T18:46:24.659Z,-0.76
2018-02-25T18:48:53.255Z,-0.72
2018-02-25T18:51:21.682Z,-0.66
2018-02-25T18:53:50.900Z,-0.67
2018-02-25T18:56:20.109Z,-0.68
2018-02-25T18:58:48.832Z,-0.74
2018-02-25T19:01:17.287Z,-0.73
2018-02-25T19:03:45.736Z,-0.69
2018-02-25T19:06:14.981Z,-0.66
2018-02-25T19:08:43.416Z,-0.66
2018-02-25T19:11:12.625Z,-0.79
2018-02-25T19:13:41.816Z,-0.78
2018-02-25T19:16:10.332Z,-0.78
2018-02-25T19:18:38.726Z,-0.85
2018-02-25T19:21:07.136Z,-0.86
2018-02-25T19:23:35.570Z,-0.85
2018-02-25T19:26:03.980Z,-0.87
2018-02-25T19:28:32.435Z,-0.91
2018-02-25T19:31:01.104Z,-0.90
2018-02-25T19:33:29.680Z,-0.89
2018-02-25T19:36:03.896Z,-0.96
2018-02-25T19:41:41.068Z,-1.06
2018-02-25T19:44:09.684Z,-1.00
2018-02-25T19:46:39.032Z,-0.96
2018-02-25T19:49:07.598Z,-1.05
2018-02-25T19:51:36.019Z,-1.10
2018-02-25T19:54:04.495Z,-1.02
2018-02-25T19:56:33.168Z,-1.03
2018-02-25T19:59:01.664Z,-1.06
2018-02-25T20:01:30.145Z,-1.10
2018-02-25T20:03:59.476Z,-1.14
2018-02-25T20:06:28.687Z,-1.27
2018-02-25T20:08:58.040Z,-1.34
2018-02-25T20:11:26.657Z,-1.38
2018-02-25T20:13:55.868Z,-1.38
2018-02-25T20:16:25.044Z,-1.52
2018-02-25T20:18:54.528Z,-1.53
2018-02-25T20:21:23.612Z,-1.51
2018-02-25T20:23:52.019Z,-1.49
2018-02-25T20:26:20.443Z,-1.54
2018-02-25T20:28:48.850Z,-1.59
2018-02-25T20:31:17.266Z,-1.62
2018-02-25T20:33:46.564Z,-1.70
2018-02-25T20:36:14.993Z,-1.69
2018-02-25T20:38:43.417Z,-1.70
2018-02-25T20:41:11.881Z,-1.71
2018-02-25T20:43:41.153Z,-1.72
2018-02-25T20:46:11.135Z,-1.78
2018-02-25T20:48:49.465Z,-1.88
2018-02-25T20:51:17.961Z,-1.79
2018-02-25T20:53:46.476Z,-1.80
2018-02-25T20:56:15.712Z,-1.87
2018-02-25T20:58:44.126Z,-1.93
2018-02-25T21:01:12.537Z,-1.97
2018-02-25T21:03:41.232Z,-1.91
2018-02-25T21:06:09.657Z,-2.04
2018-02-25T21:08:38.059Z,-2.01
2018-02-25T21:11:06.969Z,-2.01
2018-02-25T21:13:35.400Z,-2.00
2018-02-25T21:16:04.620Z,-2.05
2018-02-25T21:18:33.068Z,-2.08
2018-02-25T21:21:02.237Z,-2.06
2018-02-25T21:23:30.748Z,-2.17
2018-02-25T21:25:59.903Z,-2.25
2018-02-25T21:28:28.295Z,-2.33
2018-02-25T21:30:56.726Z,-2.33
2018-02-25T21:33:25.123Z,-2.42
2018-02-25T21:35:54.226Z,-2.45
2018-02-25T21:38:22.661Z,-2.44
2018-02-25T21:40:51.828Z,-2.50
2018-02-25T21:43:20.232Z,-2.49
2018-02-25T21:45:49.455Z,-2.49
2018-02-25T21:48:17.829Z,-2.50
2018-02-25T21:50:46.212Z,-2.52
2018-02-25T21:53:14.622Z,-2.50
2018-02-25T21:55:48.359Z,-2.54
2018-02-25T21:58:22.094Z,-2.65
2018-02-25T22:00:56.865Z,-2.64
2018-02-25T22:03:30.168Z,-2.70
2018-02-25T22:05:59.280Z,-2.71
2018-02-25T22:08:27.728Z,-2.77
2018-02-25T22:10:56.127Z,-2.83
2018-02-25T22:13:24.519Z,-2.85
2018-02-25T22:15:52.961Z,-2.91
2018-02-25T22:18:21.441Z,-2.92
2018-02-25T22:20:49.968Z,-2.94
2018-02-25T22:23:19.299Z,-2.98
2018-02-25T22:25:48.488Z,-3.00
2018-02-25T22:28:17.783Z,-2.99
2018-02-25T22:30:46.995Z,-3.00
2018-02-25T22:33:16.160Z,-3.10
2018-02-25T22:35:44.553Z,-3.19
2018-02-25T22:38:12.995Z,-3.14
2018-02-25T22:40:41.364Z,-3.13
2018-02-25T22:43:09.834Z,-3.15
2018-02-25T22:45:38.973Z,-3.19
2018-02-25T22:48:07.365Z,-3.20
2018-02-25T22:50:35.804Z,-3.26
2018-02-25T22:53:04.232Z,-3.23
2018-02-25T22:55:33.392Z,-3.30
2018-02-25T22:58:01.805Z,-3.43
2018-02-25T23:00:30.203Z,-3.45
2018-02-25T23:02:58.618Z,-3.46
2018-02-25T23:05:27.011Z,-3.46
2018-02-25T23:07:55.508Z,-3.52
2018-02-25T23:10:23.943Z,-3.52
2018-02-25T23:12:52.376Z,-3.59
2018-02-25T23:15:20.865Z,-3.62
2018-02-25T23:17:49.436Z,-3.69
2018-02-25T23:20:17.829Z,-3.78
2018-02-25T23:22:46.228Z,-3.78
2018-02-25T23:25:16.011Z,-3.73
2018-02-25T23:27:44.419Z,-3.75
2018-02-25T23:30:12.930Z,-3.78
2018-02-25T23:32:42.071Z,-3.80
2018-02-25T23:35:11.361Z,-3.86
2018-02-25T23:37:40.606Z,-3.94
2018-02-25T23:40:08.986Z,-3.98
2018-02-25T23:42:37.856Z,-3.93
2018-02-25T23:45:06.262Z,-3.98
2018-02-25T23:47:34.752Z,-3.97
2018-02-25T23:50:03.326Z,-4.08
2018-02-25T23:52:31.752Z,-4.13
2018-02-25T23:55:00.147Z,-4.27
2018-02-25T23:57:28.636Z,-4.16
2018-02-25T23:59:57.110Z,-4.16
